METAR Data
IDs: Format: Raw Decoded Include TAF

Data at: 2030 UTC 25 Oct 2021

SABE 252000Z 25008KT 160V310 CAVOK 30/03 Q1009 NOSIG